KRXE

Details ICAO KRXE
Name REXBURG MADISON CO
Region United States
Timezone America/Boise (UTC-6.0)
Plans Departing 2
Arriving 6
Stats Elevation 4,858 ft / 1,481 m (AMSL)
Location 43.833919° -111.805109°
Runways 1
Magnetic Variation 11.824° E
Sunrise 2018-05-21 11:57:05 UTC / 2018-05-21 05:57:05 Local
Sunset 2018-05-22 02:53:26 UTC / 2018-05-21 20:53:26 Local
Advertisement - Login to hide

Runways

ID Width Length Bearing (true) Bearing (mag) Surface Threshold Offset Overrun Length
17 75 ft / 23 m 4,207 ft / 1,282 m 186.44° 174.62° Asphalt 240 ft / 73 m 0 ft / 0 m
35 75 ft / 23 m 4,207 ft / 1,282 m 6.44° 354.62° Asphalt 0 ft / 0 m 0 ft / 0 m

Map

Weather


0- 5 10 15 20 25 30 35+ Temperature / ° C

Clouds and Precipitation
Forecast for 2018-05-21 18:00 UTC. Updated 2 hours ago

Ground ~20,000 ft ~40,000 ft Winds

METAR

KRXE 211853Z AUTO VRB03KT 10SM CLR 20/06 A2997 RMK AO2 SLP115 T02000056

TAF

Not found

Frequencies

Recorded 135.07 MHz ASOS
Unicom 122.80 MHz CTAF/UNICOM
Warning: Do not use this data for real-world aviation or navigation. No guarantee of current accuracy is given.